Time;durP1;ratioP1;P1;durP2;ratioP2;P2;SDS_P1;SDS_P2;PMS_P1;PMS_P2;Temp;Humidity;BMP_temperature;BMP_pressure;BME280_temperature;BME280_humidity;BME280_pressure;Samples;Min_cycle;Max_cycle;Signal;HPM_P1;HPM_P2
2022/10/30 00:00:14;;;;;;;9.48;7.63;;;16.90;99.90;;;;;;5014096;28;20099;-81
2022/10/30 00:02:40;;;;;;;11.68;8.35;;;17.00;99.90;;;;;;5013777;28;20077;-81
2022/10/30 00:05:06;;;;;;;11.77;7.63;;;16.90;99.90;;;;;;5014214;28;20030;-82
2022/10/30 00:07:32;;;;;;;9.95;8.13;;;16.90;99.90;;;;;;5013706;28;20033;-81
2022/10/30 00:09:58;;;;;;;8.82;7.47;;;16.90;99.90;;;;;;5013491;28;20029;-81
2022/10/30 00:12:24;;;;;;;12.10;7.60;;;16.90;99.90;;;;;;5013811;28;20026;-82
2022/10/30 00:14:49;;;;;;;10.85;7.72;;;16.90;99.90;;;;;;5013957;28;20018;-81
2022/10/30 00:17:15;;;;;;;12.98;7.75;;;16.80;99.90;;;;;;5013804;28;20528;-81
2022/10/30 00:19:41;;;;;;;13.18;8.02;;;16.80;99.90;;;;;;5013677;28;20064;-81
2022/10/30 00:22:06;;;;;;;12.32;8.07;;;16.80;99.90;;;;;;5014023;28;20384;-81
2022/10/30 00:24:32;;;;;;;8.80;7.70;;;16.80;99.90;;;;;;5013464;28;20178;-81
2022/10/30 00:26:58;;;;;;;10.65;7.45;;;16.70;99.90;;;;;;5013492;28;20404;-81
2022/10/30 00:29:25;;;;;;;10.35;7.82;;;16.70;99.90;;;;;;5013499;28;20033;-81
2022/10/30 00:31:51;;;;;;;11.07;7.95;;;16.70;99.90;;;;;;5013470;28;20025;-81
2022/10/30 00:34:17;;;;;;;7.45;6.75;;;16.80;99.90;;;;;;5013534;28;20030;-81
2022/10/30 00:36:43;;;;;;;12.32;8.00;;;16.70;99.90;;;;;;5013185;28;20468;-81
2022/10/30 00:39:08;;;;;;;12.85;7.35;;;16.80;99.90;;;;;;4998773;28;20472;-81
2022/10/30 00:41:35;;;;;;;10.48;8.20;;;16.70;99.90;;;;;;4993155;28;20595;-81
2022/10/30 00:44:01;;;;;;;10.50;8.43;;;16.60;99.90;;;;;;4993883;28;20026;-81
2022/10/30 00:46:27;;;;;;;9.38;7.13;;;16.60;99.90;;;;;;4993493;28;20080;-81
2022/10/30 00:49:01;;;;;;;10.57;7.78;;;16.60;99.90;;;;;;4994208;28;20530;-81
2022/10/30 00:51:29;;;;;;;12.18;8.07;;;16.70;99.90;;;;;;5013469;28;20173;-81
2022/10/30 00:53:59;;;;;;;10.43;7.63;;;16.60;99.90;;;;;;5013104;28;20025;-81
2022/10/30 00:56:25;;;;;;;11.95;8.15;;;16.70;99.90;;;;;;5013134;28;20021;-81
2022/10/30 00:59:01;;;;;;;12.60;7.22;;;16.80;99.90;;;;;;5013107;28;20112;-81
2022/10/30 01:01:31;;;;;;;7.43;6.72;;;16.80;99.90;;;;;;5013082;28;20048;-82
2022/10/30 01:03:59;;;;;;;9.15;7.13;;;16.80;99.90;;;;;;5012678;28;20026;-82
2022/10/30 01:06:27;;;;;;;10.68;7.65;;;16.80;99.90;;;;;;5012741;28;20029;-82
2022/10/30 01:08:54;;;;;;;11.43;7.43;;;16.80;99.90;;;;;;5012876;28;20033;-82
2022/10/30 01:11:20;;;;;;;8.77;7.07;;;16.80;99.90;;;;;;5012567;28;20037;-82
2022/10/30 01:13:48;;;;;;;9.48;7.30;;;16.80;99.90;;;;;;5012817;28;20543;-82
2022/10/30 01:16:34;;;;;;;9.93;7.40;;;16.80;99.90;;;;;;5012709;28;20036;-81
2022/10/30 01:19:15;;;;;;;12.65;7.78;;;16.80;99.90;;;;;;5011999;28;20064;-81
2022/10/30 01:22:14;;;;;;;11.00;7.78;;;16.80;99.90;;;;;;5012318;28;20026;-82
2022/10/30 01:24:45;;;;;;;9.35;7.70;;;16.80;99.90;;;;;;5012555;28;20025;-81
2022/10/30 01:27:11;;;;;;;11.68;7.32;;;16.80;99.90;;;;;;5012501;28;20038;-81
2022/10/30 01:30:05;;;;;;;10.45;7.63;;;16.90;99.90;;;;;;5012351;28;20506;-81
2022/10/30 01:32:55;;;;;;;11.25;7.53;;;16.80;99.90;;;;;;5012759;28;20071;-82
2022/10/30 01:35:31;;;;;;;11.60;8.02;;;16.80;99.90;;;;;;5012810;28;20030;-82
2022/10/30 01:38:14;;;;;;;10.15;8.27;;;16.80;99.90;;;;;;5012324;28;20026;-82
2022/10/30 01:40:44;;;;;;;9.57;8.15;;;16.80;99.90;;;;;;5012587;28;20569;-82
2022/10/30 01:43:10;;;;;;;9.90;8.38;;;16.80;99.90;;;;;;5012381;28;20108;-82
2022/10/30 01:45:47;;;;;;;10.23;7.82;;;16.80;99.90;;;;;;5012100;28;20032;-82
2022/10/30 01:48:13;;;;;;;12.73;7.65;;;16.80;99.90;;;;;;5011810;28;20231;-81
2022/10/30 01:50:58;;;;;;;11.73;8.48;;;16.80;99.90;;;;;;5012069;28;20037;-81
2022/10/30 01:53:39;;;;;;;11.30;8.23;;;16.90;99.90;;;;;;5012408;28;20029;-81
2022/10/30 01:56:11;;;;;;;9.38;7.97;;;16.80;99.90;;;;;;5012095;28;20029;-81
2022/10/30 01:58:45;;;;;;;8.50;7.53;;;16.80;99.90;;;;;;5012440;28;20056;-81
2022/10/30 02:01:12;;;;;;;11.50;8.23;;;16.80;99.90;;;;;;5012368;28;20056;-81
2022/10/30 02:03:38;;;;;;;13.50;8.25;;;16.80;99.90;;;;;;5011642;28;20021;-81
2022/10/30 02:06:04;;;;;;;12.52;8.82;;;16.80;99.90;;;;;;5011642;28;20072;-81
2022/10/30 02:08:30;;;;;;;13.00;9.23;;;16.80;99.90;;;;;;5012261;28;20026;-82
2022/10/30 02:10:57;;;;;;;10.70;8.18;;;16.80;99.90;;;;;;5011601;28;20072;-81
2022/10/30 02:13:23;;;;;;;11.80;8.52;;;16.80;99.90;;;;;;5012268;28;20018;-82
2022/10/30 02:15:49;;;;;;;9.82;8.63;;;16.80;99.90;;;;;;5012044;28;20041;-81
2022/10/30 02:18:15;;;;;;;9.38;8.38;;;16.80;99.90;;;;;;5012171;28;20026;-82
2022/10/30 02:20:41;;;;;;;11.32;8.23;;;16.80;99.90;;;;;;5011786;28;20034;-82
2022/10/30 02:23:07;;;;;;;9.93;7.78;;;16.80;99.90;;;;;;5012057;28;20104;-82
2022/10/30 02:25:34;;;;;;;9.55;8.23;;;16.80;99.90;;;;;;5011313;28;20046;-82
2022/10/30 02:27:59;;;;;;;11.25;8.18;;;16.70;99.90;;;;;;5012213;28;20096;-82
2022/10/30 02:30:25;;;;;;;10.50;8.10;;;16.70;99.90;;;;;;5011872;28;20042;-81
2022/10/30 02:32:51;;;;;;;13.32;7.97;;;16.70;99.90;;;;;;5011619;28;20172;-81
2022/10/30 02:35:16;;;;;;;12.15;9.02;;;16.80;99.90;;;;;;5011417;28;20026;-81
2022/10/30 02:37:42;;;;;;;12.48;7.85;;;16.70;99.90;;;;;;5011515;28;20627;-81
2022/10/30 02:40:08;;;;;;;10.98;8.57;;;16.80;99.90;;;;;;5011920;28;20036;-82
2022/10/30 02:42:34;;;;;;;13.27;8.32;;;16.80;99.90;;;;;;5011865;28;20026;-82
2022/10/30 02:45:00;;;;;;;14.52;8.93;;;16.80;99.90;;;;;;5012026;28;20034;-82
2022/10/30 02:47:27;;;;;;;9.77;8.55;;;16.80;99.90;;;;;;5011794;28;20022;-81
2022/10/30 02:49:53;;;;;;;9.43;8.45;;;16.80;99.90;;;;;;5011579;28;20061;-81
2022/10/30 02:52:19;;;;;;;10.57;8.13;;;16.80;99.90;;;;;;5011812;28;20021;-81
2022/10/30 02:54:44;;;;;;;12.00;8.38;;;16.80;99.90;;;;;;5011856;28;20022;-81
2022/10/30 02:57:10;;;;;;;11.20;8.32;;;16.80;99.90;;;;;;5011513;28;20026;-82
2022/10/30 02:59:36;;;;;;;11.55;7.88;;;16.80;99.90;;;;;;5011992;28;20026;-82
2022/10/30 03:02:01;;;;;;;8.98;7.43;;;16.70;99.90;;;;;;5015350;28;20030;-82
2022/10/30 03:04:27;;;;;;;10.95;7.70;;;16.70;99.90;;;;;;5014789;28;20468;-82
2022/10/30 03:06:53;;;;;;;10.45;7.45;;;16.70;99.90;;;;;;5015048;28;20069;-81
2022/10/30 03:09:19;;;;;;;11.77;7.80;;;16.70;99.90;;;;;;5015474;28;20476;-82
2022/10/30 03:11:44;;;;;;;9.70;8.20;;;16.70;99.90;;;;;;5014318;28;20225;-82
2022/10/30 03:14:10;;;;;;;11.68;7.90;;;16.60;99.90;;;;;;5015344;28;20483;-82
2022/10/30 03:16:37;;;;;;;10.40;7.78;;;16.60;99.90;;;;;;5013864;28;20026;-82
2022/10/30 03:19:03;;;;;;;14.32;7.90;;;16.50;99.90;;;;;;5014721;28;20034;-82
2022/10/30 03:21:29;;;;;;;9.90;7.55;;;16.50;99.90;;;;;;5014923;28;20080;-82
2022/10/30 03:23:55;;;;;;;12.38;8.13;;;16.50;99.90;;;;;;5014888;28;20033;-82
2022/10/30 03:26:21;;;;;;;8.73;7.82;;;16.60;99.90;;;;;;5014491;28;20507;-82
2022/10/30 03:28:46;;;;;;;13.30;7.97;;;16.60;99.90;;;;;;5014793;28;20053;-82
2022/10/30 03:31:14;;;;;;;9.55;7.68;;;16.60;99.90;;;;;;5014877;28;20022;-82
2022/10/30 03:33:41;;;;;;;8.88;7.55;;;16.60;99.90;;;;;;4994534;28;20022;-82
2022/10/30 03:36:08;;;;;;;11.73;8.00;;;16.60;99.90;;;;;;4995030;28;20058;-82
2022/10/30 03:38:34;;;;;;;8.60;7.40;;;16.50;99.90;;;;;;5004751;28;20048;-82
2022/10/30 03:41:00;;;;;;;12.65;8.75;;;16.60;99.90;;;;;;5014271;28;20054;-81
2022/10/30 03:43:25;;;;;;;11.48;7.75;;;16.50;99.90;;;;;;5014596;28;20060;-82
2022/10/30 03:45:53;;;;;;;11.13;7.97;;;16.50;99.90;;;;;;5014217;28;20439;-82
2022/10/30 03:48:21;;;;;;;8.77;7.28;;;16.40;99.90;;;;;;5014176;28;20045;-82
2022/10/30 03:50:47;;;;;;;10.57;7.70;;;16.50;99.90;;;;;;5029447;28;20032;-82
2022/10/30 03:53:13;;;;;;;9.07;7.57;;;16.50;99.90;;;;;;5014290;28;20041;-82
2022/10/30 03:55:40;;;;;;;8.90;7.28;;;16.50;99.90;;;;;;5013836;28;20036;-82
2022/10/30 03:58:06;;;;;;;12.98;7.88;;;16.50;99.90;;;;;;5014179;28;20048;-82
2022/10/30 04:00:33;;;;;;;9.60;7.63;;;16.40;99.90;;;;;;5013350;28;20033;-82
2022/10/30 04:02:58;;;;;;;14.15;9.13;;;16.40;99.90;;;;;;5013504;28;20103;-82
2022/10/30 04:05:25;;;;;;;9.07;7.68;;;16.40;99.90;;;;;;5014331;28;20527;-82
2022/10/30 04:08:01;;;;;;;9.25;6.82;;;16.40;99.90;;;;;;4993790;28;20049;-82
2022/10/30 04:10:28;;;;;;;9.30;7.75;;;16.50;99.90;;;;;;4994345;28;20037;-82
2022/10/30 04:13:02;;;;;;;11.70;7.78;;;16.50;99.90;;;;;;4993525;28;20049;-82
2022/10/30 04:15:28;;;;;;;17.10;7.63;;;16.50;99.90;;;;;;4994383;28;20026;-82
2022/10/30 04:17:54;;;;;;;8.18;6.72;;;16.40;99.90;;;;;;4994274;28;20091;-82
2022/10/30 04:20:21;;;;;;;10.52;7.68;;;16.50;99.90;;;;;;4994441;28;20543;-82
2022/10/30 04:22:47;;;;;;;13.43;8.38;;;16.50;99.90;;;;;;4994041;28;20113;-82
2022/10/30 04:25:13;;;;;;;8.50;7.00;;;16.40;99.90;;;;;;4993716;28;20129;-82
2022/10/30 04:27:42;;;;;;;7.82;7.03;;;16.40;99.90;;;;;;4993822;28;20520;-82
2022/10/30 04:30:12;;;;;;;11.52;7.50;;;16.40;99.90;;;;;;4994094;28;20096;-82
2022/10/30 04:32:54;;;;;;;10.35;7.30;;;16.40;99.90;;;;;;5004909;28;20040;-82
2022/10/30 04:35:26;;;;;;;12.73;8.57;;;16.40;99.90;;;;;;5013812;28;20099;-82
2022/10/30 04:37:55;;;;;;;9.93;7.50;;;16.40;99.90;;;;;;5009034;28;20053;-82
2022/10/30 04:40:23;;;;;;;12.57;8.02;;;16.50;99.90;;;;;;4993831;28;20038;-82
2022/10/30 04:42:49;;;;;;;10.32;8.15;;;16.50;99.90;;;;;;4993647;28;20031;-82
2022/10/30 04:45:15;;;;;;;8.48;7.65;;;16.40;99.90;;;;;;4993689;28;20102;-82
2022/10/30 04:47:41;;;;;;;15.43;8.15;;;16.40;99.90;;;;;;5008286;28;20081;-82
2022/10/30 04:50:08;;;;;;;8.63;6.95;;;16.40;99.90;;;;;;5004319;28;20029;-82
2022/10/30 04:52:33;;;;;;;11.07;8.07;;;16.40;99.90;;;;;;5013211;28;20037;-82
2022/10/30 04:54:59;;;;;;;9.40;7.75;;;16.40;99.90;;;;;;5012815;28;20018;-82
2022/10/30 04:57:25;;;;;;;11.52;7.18;;;16.30;99.90;;;;;;5013284;28;20535;-82
2022/10/30 04:59:50;;;;;;;8.52;7.50;;;16.30;99.90;;;;;;5012846;28;20021;-83
2022/10/30 05:02:18;;;;;;;8.95;7.30;;;16.40;99.90;;;;;;5013085;28;20088;-82
2022/10/30 05:04:44;;;;;;;9.35;8.00;;;16.40;99.90;;;;;;5013408;28;20479;-83
2022/10/30 05:07:11;;;;;;;11.13;8.35;;;16.50;99.90;;;;;;5012770;28;20037;-83
2022/10/30 05:09:36;;;;;;;11.18;7.90;;;16.40;99.90;;;;;;5012590;28;20029;-83
2022/10/30 05:12:02;;;;;;;8.95;8.05;;;16.40;99.90;;;;;;5012915;28;20018;-82
2022/10/30 05:14:32;;;;;;;8.60;7.22;;;16.40;99.90;;;;;;5012652;28;20476;-82
2022/10/30 05:16:58;;;;;;;12.32;8.25;;;16.40;99.90;;;;;;5013096;28;20037;-82
2022/10/30 05:19:24;;;;;;;11.55;8.25;;;16.40;99.90;;;;;;5013060;28;20156;-82
2022/10/30 05:21:50;;;;;;;12.35;9.13;;;16.40;99.90;;;;;;5012836;28;20036;-82
2022/10/30 05:24:15;;;;;;;11.88;8.02;;;16.40;99.90;;;;;;5012633;28;20484;-82
2022/10/30 05:26:41;;;;;;;9.50;8.30;;;16.50;99.90;;;;;;5012409;28;20551;-83
2022/10/30 05:29:07;;;;;;;11.52;7.38;;;16.40;99.90;;;;;;5012457;28;20018;-83
2022/10/30 05:31:32;;;;;;;11.75;8.07;;;16.40;99.90;;;;;;5012804;28;20488;-82
2022/10/30 05:33:58;;;;;;;9.57;8.05;;;16.40;99.90;;;;;;5012718;28;20024;-83
2022/10/30 05:36:24;;;;;;;12.50;8.93;;;16.50;99.90;;;;;;5012578;28;20030;-82
2022/10/30 05:38:50;;;;;;;12.23;7.68;;;16.50;99.90;;;;;;5012450;28;20057;-83
2022/10/30 05:41:16;;;;;;;12.02;8.02;;;16.40;99.90;;;;;;5012202;28;20484;-83
2022/10/30 05:43:41;;;;;;;16.20;8.57;;;16.50;99.90;;;;;;5012009;28;20062;-82
2022/10/30 05:46:07;;;;;;;13.23;8.38;;;16.50;99.90;;;;;;5012635;28;20025;-83
2022/10/30 05:48:33;;;;;;;11.60;8.75;;;16.50;99.90;;;;;;5012358;28;20488;-83
2022/10/30 05:50:59;;;;;;;15.48;8.38;;;16.40;99.90;;;;;;5012240;28;20428;-83
2022/10/30 05:53:25;;;;;;;12.35;8.45;;;16.40;99.90;;;;;;5012326;28;20037;-83
2022/10/30 05:55:50;;;;;;;12.60;8.90;;;16.50;99.90;;;;;;5011971;28;20499;-83
2022/10/30 05:58:16;;;;;;;8.82;7.93;;;16.50;99.90;;;;;;5012101;28;20033;-83
2022/10/30 06:00:43;;;;;;;10.80;8.90;;;16.50;99.90;;;;;;5011016;28;20030;-83
2022/10/30 06:03:12;;;;;;;14.13;8.43;;;16.50;99.90;;;;;;5012068;28;20071;-83
2022/10/30 06:05:38;;;;;;;14.05;8.20;;;16.40;99.90;;;;;;5012125;28;20033;-83
2022/10/30 06:08:06;;;;;;;10.20;7.82;;;16.40;99.90;;;;;;5012163;28;20480;-83
2022/10/30 06:10:32;;;;;;;15.80;8.98;;;16.50;99.90;;;;;;5011950;28;20018;-83
2022/10/30 06:13:04;;;;;;;12.82;8.13;;;16.50;99.90;;;;;;5011776;28;20026;-83
2022/10/30 06:15:30;;;;;;;13.15;8.70;;;16.60;99.90;;;;;;5012604;28;20036;-83
2022/10/30 06:17:57;;;;;;;12.50;8.55;;;16.50;99.90;;;;;;5011808;28;20037;-83
2022/10/30 06:20:25;;;;;;;12.40;9.02;;;16.50;99.90;;;;;;5012413;28;20022;-83
2022/10/30 06:23:01;;;;;;;8.88;7.82;;;16.40;99.90;;;;;;5012009;28;20014;-83
2022/10/30 06:25:29;;;;;;;11.32;8.23;;;16.50;99.90;;;;;;5011703;28;20076;-83
2022/10/30 06:27:55;;;;;;;10.80;7.88;;;16.50;99.90;;;;;;5011416;28;20018;-82
2022/10/30 06:30:21;;;;;;;11.32;8.48;;;16.50;99.90;;;;;;5012174;28;20026;-83
2022/10/30 06:32:47;;;;;;;13.68;8.13;;;16.50;99.90;;;;;;5012087;28;20480;-83
2022/10/30 06:35:13;;;;;;;10.65;8.38;;;16.50;99.90;;;;;;5013249;28;20018;-82
2022/10/30 06:37:46;;;;;;;16.27;8.05;;;16.50;99.90;;;;;;5013342;28;20049;-83
2022/10/30 06:40:12;;;;;;;11.35;8.32;;;16.50;99.90;;;;;;4995991;28;20085;-83
2022/10/30 06:42:43;;;;;;;15.43;8.13;;;16.60;99.90;;;;;;4995631;28;20030;-83
2022/10/30 06:45:09;;;;;;;10.48;8.18;;;16.60;99.90;;;;;;4995896;28;20030;-83
2022/10/30 06:47:36;;;;;;;10.75;8.65;;;16.60;99.90;;;;;;4995966;28;20057;-84
2022/10/30 06:50:02;;;;;;;13.52;8.75;;;16.70;99.90;;;;;;5005917;28;20030;-84
2022/10/30 06:52:28;;;;;;;11.27;7.88;;;16.60;99.90;;;;;;5015628;28;20029;-84
2022/10/30 06:54:54;;;;;;;12.10;8.10;;;16.70;99.90;;;;;;5014926;28;20021;-83
2022/10/30 06:57:19;;;;;;;11.50;8.13;;;16.70;99.90;;;;;;5015616;28;20158;-83
2022/10/30 06:59:45;;;;;;;8.73;7.82;;;16.60;99.90;;;;;;5015002;28;20551;-84
2022/10/30 07:02:10;;;;;;;12.30;7.78;;;16.70;99.90;;;;;;5015287;28;20377;-83
2022/10/30 07:04:36;;;;;;;12.57;7.95;;;16.80;99.90;;;;;;5015329;28;20395;-84
2022/10/30 07:07:03;;;;;;;17.67;8.35;;;16.90;99.90;;;;;;5015000;28;20108;-84
2022/10/30 07:09:29;;;;;;;12.88;8.35;;;16.80;99.90;;;;;;5015067;28;20029;-84
2022/10/30 07:11:54;;;;;;;10.52;8.45;;;16.90;99.90;;;;;;5014725;28;20013;-84
2022/10/30 07:14:20;;;;;;;10.88;8.95;;;16.90;99.90;;;;;;5014990;28;20072;-84
2022/10/30 07:16:46;;;;;;;13.27;9.05;;;17.00;99.90;;;;;;5015236;28;20049;-83
2022/10/30 07:19:12;;;;;;;10.50;8.82;;;17.00;99.90;;;;;;5014860;28;20387;-84
2022/10/30 07:21:38;;;;;;;13.93;8.43;;;17.10;99.90;;;;;;5014769;28;20420;-84
2022/10/30 07:24:04;;;;;;;15.88;9.02;;;17.10;99.90;;;;;;5014818;28;20092;-84
2022/10/30 07:26:29;;;;;;;11.95;8.90;;;17.20;99.90;;;;;;5014375;28;20038;-84
2022/10/30 07:28:55;;;;;;;11.57;8.05;;;17.20;99.90;;;;;;5014507;28;20404;-84
2022/10/30 07:31:21;;;;;;;10.88;8.70;;;17.30;99.90;;;;;;5014620;28;20117;-84
2022/10/30 07:33:46;;;;;;;10.45;8.07;;;17.30;99.90;;;;;;5014651;28;20025;-84
2022/10/30 07:36:13;;;;;;;7.85;6.90;;;17.40;99.90;;;;;;5014955;28;20484;-84
2022/10/30 07:38:39;;;;;;;9.05;7.45;;;17.40;99.90;;;;;;5003804;28;20026;-84
2022/10/30 07:41:05;;;;;;;11.95;8.40;;;17.50;99.90;;;;;;4994376;28;20030;-84
2022/10/30 07:43:30;;;;;;;11.13;7.45;;;17.50;99.90;;;;;;4995167;28;20492;-84
2022/10/30 07:45:56;;;;;;;10.50;7.72;;;17.50;99.90;;;;;;4994149;28;20030;-84
2022/10/30 07:48:22;;;;;;;8.77;7.80;;;17.60;99.90;;;;;;4994262;28;20037;-84
2022/10/30 07:50:48;;;;;;;12.32;8.27;;;17.60;99.90;;;;;;5011066;28;20097;-84
2022/10/30 07:53:13;;;;;;;13.10;7.40;;;17.70;99.90;;;;;;5014470;28;20541;-84
2022/10/30 07:55:41;;;;;;;8.80;7.20;;;17.80;99.90;;;;;;5013787;28;20033;-84
2022/10/30 07:58:07;;;;;;;8.65;7.60;;;17.80;99.90;;;;;;5014317;28;20034;-84
2022/10/30 08:00:32;;;;;;;16.13;8.25;;;17.90;99.90;;;;;;5013211;28;20453;-84
2022/10/30 08:02:58;;;;;;;13.77;8.82;;;18.00;99.90;;;;;;5013917;28;20505;-84
2022/10/30 08:05:24;;;;;;;14.10;8.27;;;18.10;99.90;;;;;;5013934;28;20030;-84
2022/10/30 08:07:50;;;;;;;12.50;8.38;;;18.40;99.90;;;;;;4994047;28;20057;-84
2022/10/30 08:10:16;;;;;;;10.52;7.70;;;18.60;99.90;;;;;;4994247;28;20022;-84
2022/10/30 08:12:43;;;;;;;11.43;8.20;;;18.80;99.90;;;;;;4994107;28;20113;-84
2022/10/30 08:15:10;;;;;;;11.02;7.75;;;19.10;99.90;;;;;;4994092;28;20529;-84
2022/10/30 08:17:43;;;;;;;12.90;8.18;;;19.20;99.90;;;;;;4994386;28;20022;-84
2022/10/30 08:20:10;;;;;;;10.50;7.97;;;19.80;99.90;;;;;;4994316;28;20026;-85
2022/10/30 08:22:46;;;;;;;13.95;7.40;;;21.20;99.90;;;;;;4994300;28;20037;-84
2022/10/30 08:25:12;;;;;;;11.05;7.68;;;22.90;99.90;;;;;;4993761;28;20063;-84
2022/10/30 08:27:38;;;;;;;12.93;7.82;;;24.20;99.90;;;;;;4993851;28;20034;-84
2022/10/30 08:30:04;;;;;;;10.90;7.78;;;25.20;99.90;;;;;;4994230;28;20541;-84
2022/10/30 08:32:29;;;;;;;9.93;7.63;;;24.30;99.90;;;;;;4994006;28;20030;-84
2022/10/30 08:34:55;;;;;;;13.38;8.02;;;23.60;99.90;;;;;;4994007;28;20022;-84
2022/10/30 08:37:21;;;;;;;13.68;8.32;;;21.70;99.90;;;;;;4993857;28;20038;-84
2022/10/30 08:39:46;;;;;;;10.82;7.20;;;20.80;99.90;;;;;;5028501;28;20077;-84
2022/10/30 08:42:12;;;;;;;10.63;7.22;;;20.60;99.90;;;;;;5013073;28;20026;-84
2022/10/30 08:44:38;;;;;;;14.82;8.18;;;20.40;99.90;;;;;;5013324;28;20046;-84
2022/10/30 08:47:03;;;;;;;11.65;7.10;;;20.40;99.90;;;;;;5013130;28;20558;-84
2022/10/30 08:49:29;;;;;;;9.95;7.07;;;20.60;99.90;;;;;;5013371;28;20072;-84
2022/10/30 08:51:55;;;;;;;12.43;7.72;;;20.70;99.90;;;;;;5013033;28;20252;-84
2022/10/30 08:54:20;;;;;;;12.95;7.72;;;20.70;99.90;;;;;;5013385;28;20084;-84
2022/10/30 08:56:46;;;;;;;10.52;7.65;;;20.90;99.90;;;;;;5013221;28;20460;-84
2022/10/30 08:59:12;;;;;;;12.18;8.27;;;20.60;99.90;;;;;;5013005;28;20049;-84
2022/10/30 09:01:37;;;;;;;11.57;7.95;;;20.30;99.90;;;;;;5013107;28;20022;-84
2022/10/30 09:04:03;;;;;;;12.75;7.32;;;20.40;99.90;;;;;;5013332;28;20430;-84
2022/10/30 09:06:30;;;;;;;9.07;6.95;;;20.40;99.90;;;;;;5012743;28;20029;-84
2022/10/30 09:08:56;;;;;;;10.35;7.05;;;20.40;99.90;;;;;;5012999;28;20022;-84
2022/10/30 09:11:21;;;;;;;8.57;7.00;;;20.30;99.90;;;;;;5012392;28;20395;-84
2022/10/30 09:13:47;;;;;;;10.63;8.05;;;20.50;99.90;;;;;;5012584;28;20025;-84
2022/10/30 09:16:13;;;;;;;9.15;7.45;;;20.60;99.90;;;;;;5013056;28;20030;-84
2022/10/30 09:18:38;;;;;;;14.07;8.15;;;20.50;99.90;;;;;;5012775;28;20113;-84
2022/10/30 09:21:04;;;;;;;10.88;7.65;;;20.50;99.90;;;;;;5012416;28;20104;-84
2022/10/30 09:23:30;;;;;;;12.00;6.93;;;20.50;99.90;;;;;;5013194;28;20032;-84
2022/10/30 09:25:59;;;;;;;10.25;7.07;;;20.60;99.90;;;;;;5012002;28;20534;-84
2022/10/30 09:28:24;;;;;;;12.25;7.05;;;20.60;99.90;;;;;;5012672;28;20049;-84
2022/10/30 09:30:55;;;;;;;11.25;7.25;;;20.60;99.90;;;;;;5011492;28;20061;-84
2022/10/30 09:33:20;;;;;;;11.73;7.20;;;20.60;99.90;;;;;;5012661;28;20010;-84
2022/10/30 09:35:46;;;;;;;13.63;6.78;;;20.50;99.90;;;;;;5011911;28;20439;-84
2022/10/30 09:38:12;;;;;;;12.00;7.55;;;20.50;99.90;;;;;;5005667;28;20546;-84
2022/10/30 09:40:56;;;;;;;9.68;6.57;;;20.60;99.90;;;;;;4992906;28;20416;-84
2022/10/30 09:43:52;;;;;;;10.93;7.28;;;20.70;99.90;;;;;;4992590;28;20154;-83
2022/10/30 09:46:49;;;;;;;12.82;7.70;;;20.80;99.90;;;;;;4992657;28;20034;-83
2022/10/30 09:49:20;;;;;;;12.57;7.38;;;20.90;99.90;;;;;;4996417;28;20093;-83
2022/10/30 09:51:52;;;;;;;;;;;21.00;99.90;;;;;;5012337;28;20083;-83
2022/10/30 09:54:35;;;;;;;15.02;8.27;;;20.80;99.90;;;;;;5012320;28;20003;-84
2022/10/30 09:57:11;;;;;;;9.00;7.13;;;20.80;99.90;;;;;;5012064;28;20088;-83
2022/10/30 10:00:00;;;;;;;9.90;6.78;;;20.80;99.90;;;;;;5012184;28;20034;-83
2022/10/30 10:02:37;;;;;;;10.38;6.60;;;20.90;99.90;;;;;;5012053;28;20076;-83
2022/10/30 10:05:43;;;;;;;8.07;6.55;;;20.90;99.90;;;;;;5012119;28;20037;-83
2022/10/30 10:08:40;;;;;;;12.27;6.63;;;21.00;99.90;;;;;;4992976;28;20031;-83
2022/10/30 10:11:28;;;;;;;11.35;6.63;;;21.00;99.90;;;;;;4994440;28;20030;-83
2022/10/30 10:14:20;;;;;;;8.60;6.68;;;20.90;99.90;;;;;;4996474;28;20117;-84
2022/10/30 10:16:51;;;;;;;8.10;6.20;;;20.90;99.90;;;;;;4990988;28;20042;-83
2022/10/30 10:19:39;;;;;;;8.68;6.47;;;21.10;99.90;;;;;;4996352;28;20555;-83
2022/10/30 10:22:27;;;;;;;10.32;6.18;;;21.30;99.90;;;;;;4996432;28;20037;-83
2022/10/30 10:24:54;;;;;;;11.07;6.72;;;21.30;99.90;;;;;;4996200;28;20030;-83
2022/10/30 10:27:33;;;;;;;11.00;7.13;;;21.20;99.90;;;;;;5011370;28;20579;-83
2022/10/30 10:30:14;;;;;;;8.73;6.80;;;21.20;99.90;;;;;;4995909;28;20026;-83
2022/10/30 10:33:14;;;;;;;9.63;6.53;;;21.00;99.90;;;;;;5007535;28;20030;-83
2022/10/30 10:36:09;;;;;;;8.43;6.35;;;21.00;99.90;;;;;;5011124;28;20277;-83
2022/10/30 10:38:53;;;;;;;11.45;6.75;;;21.00;99.90;;;;;;5005882;28;20038;-83
2022/10/30 10:41:59;;;;;;;10.23;6.38;;;21.10;99.90;;;;;;4995713;28;20030;-83
2022/10/30 10:44:43;;;;;;;13.27;6.70;;;21.40;99.90;;;;;;4974013;28;20104;-83
2022/10/30 10:47:27;;;;;;;14.25;6.90;;;21.50;99.90;;;;;;4973719;28;20078;-83
2022/10/30 10:49:52;;;;;;;13.10;7.45;;;21.80;99.90;;;;;;4982502;28;20037;-83
2022/10/30 10:52:23;;;;;;;11.60;6.78;;;22.00;99.90;;;;;;4993384;28;20031;-84
2022/10/30 10:54:52;;;;;;;;;;;22.00;99.90;;;;;;4994001;28;20496;-83
2022/10/30 10:57:34;;;;;;;11.00;6.70;;;22.00;99.90;;;;;;4993180;28;19906;-84
2022/10/30 11:00:12;;;;;;;9.05;6.85;;;21.90;99.90;;;;;;4993094;28;20034;-83
2022/10/30 11:02:57;;;;;;;13.48;7.40;;;21.70;99.90;;;;;;4992882;28;20041;-83
2022/10/30 11:05:44;;;;;;;11.50;6.68;;;21.50;99.90;;;;;;4993207;28;20495;-84
2022/10/30 11:08:18;;;;;;;10.80;6.65;;;21.30;99.90;;;;;;4973812;28;20042;-84
2022/10/30 11:10:53;;;;;;;11.50;6.13;;;21.20;99.90;;;;;;4973347;28;20023;-83
2022/10/30 11:13:18;;;;;;;9.13;5.97;;;21.50;99.90;;;;;;4973769;28;20114;-83
2022/10/30 11:16:11;;;;;;;10.88;6.32;;;21.60;99.90;;;;;;4973273;28;20121;-83
2022/10/30 11:18:37;;;;;;;10.85;6.53;;;21.70;99.90;;;;;;4973691;28;20030;-84
2022/10/30 11:21:09;;;;;;;9.18;5.53;;;21.90;99.90;;;;;;4979764;28;20046;-83
2022/10/30 11:23:40;;;;;;;9.95;6.10;;;21.90;99.90;;;;;;4995597;28;20039;-83
2022/10/30 11:26:21;;;;;;;11.98;6.60;;;21.90;99.90;;;;;;4994789;28;20055;-84
2022/10/30 11:28:55;;;;;;;13.38;6.50;;;21.70;99.90;;;;;;4995368;28;20018;-84
2022/10/30 11:31:39;;;;;;;7.22;6.13;;;21.90;99.90;;;;;;4995797;28;20085;-83
2022/10/30 11:34:16;;;;;;;9.45;5.78;;;21.90;99.90;;;;;;5014897;28;20045;-84
2022/10/30 11:36:52;;;;;;;10.23;6.38;;;21.90;99.90;;;;;;5014865;28;20033;-84
2022/10/30 11:39:23;;;;;;;9.77;6.70;;;21.90;99.90;;;;;;4998594;28;20109;-84
2022/10/30 11:42:14;;;;;;;7.90;6.18;;;21.70;99.90;;;;;;4994432;28;20495;-83
2022/10/30 11:44:50;;;;;;;9.47;6.57;;;21.50;99.90;;;;;;4995217;28;20057;-83
2022/10/30 11:47:24;;;;;;;10.15;6.20;;;21.40;99.90;;;;;;4994404;28;20022;-83
2022/10/30 11:49:52;;;;;;;7.32;5.72;;;21.40;99.90;;;;;;5003035;28;20045;-83
2022/10/30 11:52:21;;;;;;;9.70;5.55;;;21.50;99.90;;;;;;5013998;28;20106;-83
2022/10/30 11:54:53;;;;;;;8.38;5.32;;;21.50;99.90;;;;;;5014672;28;20518;-83
2022/10/30 11:57:30;;;;;;;8.77;5.20;;;21.60;99.90;;;;;;5014277;28;20116;-84
2022/10/30 11:59:56;;;;;;;7.18;5.28;;;21.60;99.90;;;;;;5014196;28;20029;-84
2022/10/30 12:02:28;;;;;;;8.90;5.22;;;21.60;99.90;;;;;;5013810;28;20024;-83
2022/10/30 12:04:59;;;;;;;6.45;5.10;;;21.50;99.90;;;;;;5014574;28;20034;-83
2022/10/30 12:07:33;;;;;;;7.53;5.28;;;21.60;99.90;;;;;;5013924;28;20034;-83
2022/10/30 12:10:01;;;;;;;6.65;4.70;;;21.60;99.90;;;;;;5013936;28;20076;-83
2022/10/30 12:12:35;;;;;;;6.90;5.13;;;21.60;99.90;;;;;;5013671;28;20101;-83
2022/10/30 12:15:19;;;;;;;5.85;4.65;;;21.70;99.90;;;;;;5013883;28;20053;-83
2022/10/30 12:17:51;;;;;;;5.97;4.43;;;21.70;99.90;;;;;;5013468;28;20046;-83
2022/10/30 12:20:18;;;;;;;6.65;4.93;;;21.70;99.90;;;;;;5013632;28;20033;-83
2022/10/30 12:22:45;;;;;;;7.80;5.30;;;21.60;99.90;;;;;;5013828;28;20109;-83
2022/10/30 12:25:28;;;;;;;9.00;5.03;;;21.70;99.90;;;;;;5013415;28;20104;-83
2022/10/30 12:28:03;;;;;;;7.95;4.78;;;21.70;99.90;;;;;;5013366;28;20026;-83
2022/10/30 12:30:34;;;;;;;10.45;4.70;;;21.80;99.90;;;;;;5013565;28;20022;-83
2022/10/30 12:33:15;;;;;;;9.07;5.10;;;22.00;99.90;;;;;;5012976;28;20018;-83
2022/10/30 12:35:49;;;;;;;8.70;5.00;;;22.20;99.90;;;;;;5013545;28;20022;-83
2022/10/30 12:38:35;;;;;;;8.55;5.05;;;22.10;99.90;;;;;;5013513;28;20109;-83
2022/10/30 12:41:31;;;;;;;9.82;5.25;;;22.10;99.90;;;;;;5012930;28;20033;-83
2022/10/30 12:44:02;;;;;;;10.02;5.28;;;22.20;99.90;;;;;;5013290;28;20087;-83
2022/10/30 12:46:45;;;;;;;9.63;5.80;;;22.00;99.90;;;;;;5013281;28;20034;-83
2022/10/30 12:50:02;;;;;;;11.82;5.50;;;22.00;99.90;;;;;;5013205;28;20022;-83
2022/10/30 12:52:36;;;;;;;6.57;4.80;;;22.00;99.90;;;;;;4952370;29;20031;-83
2022/10/30 12:55:01;;;;;;;10.90;5.40;;;21.90;99.90;;;;;;4952549;29;20354;-83